sensor_id;sensor_type;location;lat;lon;timestamp;pressure;altitude;pressure_sealevel;temperature;humidity
32492;BME280;20605;49.742;18.802;2023-05-10T06:10:10;97837.25;;;20.36;62.82
32492;BME280;20605;49.742;18.802;2023-05-10T06:26:36;97839.23;;;20.08;61.57
32492;BME280;20605;49.742;18.802;2023-05-10T06:46:11;97822.00;;;21.05;57.74
32492;BME280;20605;49.742;18.802;2023-05-10T07:33:10;97792.27;;;25.97;48.43
32492;BME280;20605;49.742;18.802;2023-05-10T08:32:43;97771.57;;;27.22;43.28
32492;BME280;20605;49.742;18.802;2023-05-10T09:00:28;97783.10;;;28.30;41.26
32492;BME280;20605;49.742;18.802;2023-05-10T09:37:11;97763.71;;;31.33;41.90
32492;BME280;20605;49.742;18.802;2023-05-10T11:10:22;97750.68;;;19.56;55.05
32492;BME280;20605;49.742;18.802;2023-05-10T12:34:09;97734.95;;;19.85;55.29
32492;BME280;20605;49.742;18.802;2023-05-10T12:45:12;97728.50;;;20.43;56.59
32492;BME280;20605;49.742;18.802;2023-05-10T13:20:21;97710.92;;;20.22;56.77
32492;BME280;20605;49.742;18.802;2023-05-10T13:28:27;97701.06;;;20.44;57.43
32492;BME280;20605;49.742;18.802;2023-05-10T13:31:03;97699.96;;;20.62;58.42
32492;BME280;20605;49.742;18.802;2023-05-10T14:09:06;97666.60;;;21.92;56.45
32492;BME280;20605;49.742;18.802;2023-05-10T14:23:45;97664.33;;;21.59;57.64
32492;BME280;20605;49.742;18.802;2023-05-10T14:29:50;97662.56;;;21.31;57.47
32492;BME280;20605;49.742;18.802;2023-05-10T19:20:27;97795.71;;;13.75;79.54
32492;BME280;20605;49.742;18.802;2023-05-10T19:23:26;97798.91;;;13.74;79.20
32492;BME280;20605;49.742;18.802;2023-05-10T19:25:57;97797.13;;;13.75;78.80
32492;BME280;20605;49.742;18.802;2023-05-10T19:28:55;97796.96;;;13.79;78.42
32492;BME280;20605;49.742;18.802;2023-05-10T19:31:57;97798.09;;;13.88;78.24
32492;BME280;20605;49.742;18.802;2023-05-10T19:34:51;97800.02;;;13.96;78.04
32492;BME280;20605;49.742;18.802;2023-05-10T19:37:36;97799.83;;;14.00;77.81
32492;BME280;20605;49.742;18.802;2023-05-10T19:40:47;97803.52;;;14.03;77.64
32492;BME280;20605;49.742;18.802;2023-05-10T19:44:03;97804.33;;;14.09;77.42
32492;BME280;20605;49.742;18.802;2023-05-10T19:47:14;97807.52;;;14.11;77.45
32492;BME280;20605;49.742;18.802;2023-05-10T19:53:56;97810.85;;;14.11;77.60
32492;BME280;20605;49.742;18.802;2023-05-10T19:56:56;97809.98;;;14.11;77.72
32492;BME280;20605;49.742;18.802;2023-05-10T20:00:07;97815.45;;;14.13;77.77
32492;BME280;20605;49.742;18.802;2023-05-10T20:03:13;97817.77;;;14.16;77.65
32492;BME280;20605;49.742;18.802;2023-05-10T20:05:51;97815.86;;;14.16;77.99
32492;BME280;20605;49.742;18.802;2023-05-10T20:14:21;97819.09;;;14.22;77.93
32492;BME280;20605;49.742;18.802;2023-05-10T20:17:01;97819.76;;;14.26;77.93
32492;BME280;20605;49.742;18.802;2023-05-10T20:23:08;97818.06;;;14.25;77.93
32492;BME280;20605;49.742;18.802;2023-05-10T20:26:13;97819.07;;;14.26;77.84
32492;BME280;20605;49.742;18.802;2023-05-10T20:29:09;97818.61;;;14.25;78.19
32492;BME280;20605;49.742;18.802;2023-05-10T20:32:19;97815.96;;;14.21;78.41
32492;BME280;20605;49.742;18.802;2023-05-10T20:35:33;97816.66;;;14.14;78.84
32492;BME280;20605;49.742;18.802;2023-05-10T20:38:22;97816.61;;;14.07;79.12
32492;BME280;20605;49.742;18.802;2023-05-10T20:44:20;97817.45;;;13.88;79.92
32492;BME280;20605;49.742;18.802;2023-05-10T20:47:00;97821.06;;;13.82;80.57
32492;BME280;20605;49.742;18.802;2023-05-10T20:49:58;97821.71;;;13.75;81.19
32492;BME280;20605;49.742;18.802;2023-05-10T20:52:30;97823.58;;;13.68;81.25
32492;BME280;20605;49.742;18.802;2023-05-10T20:55:37;97822.62;;;13.58;81.14
32492;BME280;20605;49.742;18.802;2023-05-10T20:58:24;97824.63;;;13.49;81.22
32492;BME280;20605;49.742;18.802;2023-05-10T21:00:57;97823.56;;;13.41;81.51
32492;BME280;20605;49.742;18.802;2023-05-10T21:03:42;97823.83;;;13.34;81.74
32492;BME280;20605;49.742;18.802;2023-05-10T21:06:23;97826.59;;;13.27;82.23
32492;BME280;20605;49.742;18.802;2023-05-10T21:09:13;97825.03;;;13.18;82.58
32492;BME280;20605;49.742;18.802;2023-05-10T21:11:46;97830.17;;;13.16;82.19
32492;BME280;20605;49.742;18.802;2023-05-10T21:14:44;97828.94;;;13.16;82.44
32492;BME280;20605;49.742;18.802;2023-05-10T21:17:53;97830.92;;;13.19;82.51
32492;BME280;20605;49.742;18.802;2023-05-10T21:21:12;97830.48;;;13.26;82.70
32492;BME280;20605;49.742;18.802;2023-05-10T21:24:38;97827.89;;;13.33;82.25
32492;BME280;20605;49.742;18.802;2023-05-10T21:27:12;97829.46;;;13.37;82.06
32492;BME280;20605;49.742;18.802;2023-05-10T21:29:57;97829.14;;;13.41;81.97
32492;BME280;20605;49.742;18.802;2023-05-10T21:32:31;97828.58;;;13.42;81.80
32492;BME280;20605;49.742;18.802;2023-05-10T21:35:28;97833.00;;;13.44;81.61
32492;BME280;20605;49.742;18.802;2023-05-10T21:38:02;97833.79;;;13.47;81.37
32492;BME280;20605;49.742;18.802;2023-05-10T21:41:05;97837.27;;;13.47;81.55
32492;BME280;20605;49.742;18.802;2023-05-10T21:43:35;97838.34;;;13.46;81.35
32492;BME280;20605;49.742;18.802;2023-05-10T21:46:46;97840.33;;;13.45;81.45
32492;BME280;20605;49.742;18.802;2023-05-10T21:49:30;97839.09;;;13.40;81.44
32492;BME280;20605;49.742;18.802;2023-05-10T21:52:13;97838.28;;;13.35;81.35
32492;BME280;20605;49.742;18.802;2023-05-10T21:54:47;97841.65;;;13.29;81.61
32492;BME280;20605;49.742;18.802;2023-05-10T21:57:32;97843.54;;;13.22;81.92
32492;BME280;20605;49.742;18.802;2023-05-10T22:00:29;97846.04;;;13.11;82.63
32492;BME280;20605;49.742;18.802;2023-05-10T22:03:06;97845.34;;;13.03;82.96
32492;BME280;20605;49.742;18.802;2023-05-10T22:06:13;97844.09;;;12.91;82.44
32492;BME280;20605;49.742;18.802;2023-05-10T22:09:01;97850.70;;;12.83;82.58
32492;BME280;20605;49.742;18.802;2023-05-10T22:11:36;97849.84;;;12.79;82.45
32492;BME280;20605;49.742;18.802;2023-05-10T22:14:18;97851.21;;;12.74;82.75
32492;BME280;20605;49.742;18.802;2023-05-10T22:17:03;97854.59;;;12.68;83.23
32492;BME280;20605;49.742;18.802;2023-05-10T22:19:40;97864.86;;;12.55;84.61
32492;BME280;20605;49.742;18.802;2023-05-10T22:22:21;97868.73;;;12.40;85.46
32492;BME280;20605;49.742;18.802;2023-05-10T22:25:41;97873.60;;;12.27;86.17
32492;BME280;20605;49.742;18.802;2023-05-10T22:28:42;97873.52;;;12.15;87.09
32492;BME280;20605;49.742;18.802;2023-05-10T22:31:39;97874.88;;;12.02;87.28
32492;BME280;20605;49.742;18.802;2023-05-10T22:34:19;97878.62;;;11.94;87.85
32492;BME280;20605;49.742;18.802;2023-05-10T22:37:17;97879.98;;;11.85;87.79
32492;BME280;20605;49.742;18.802;2023-05-10T22:39:50;97882.05;;;11.71;88.36
32492;BME280;20605;49.742;18.802;2023-05-10T22:42:48;97884.92;;;11.59;88.24
32492;BME280;20605;49.742;18.802;2023-05-10T22:45:22;97885.14;;;11.53;88.56
32492;BME280;20605;49.742;18.802;2023-05-10T22:48:36;97888.77;;;11.43;88.99
32492;BME280;20605;49.742;18.802;2023-05-10T22:51:20;97891.98;;;11.35;89.90
32492;BME280;20605;49.742;18.802;2023-05-10T22:54:06;97892.22;;;11.23;90.43
32492;BME280;20605;49.742;18.802;2023-05-10T22:56:39;97896.56;;;11.12;91.35
32492;BME280;20605;49.742;18.802;2023-05-10T22:59:25;97896.05;;;11.01;91.99
32492;BME280;20605;49.742;18.802;2023-05-10T23:02:10;97893.86;;;10.93;91.91
32492;BME280;20605;49.742;18.802;2023-05-10T23:04:54;97892.35;;;10.87;92.35
32492;BME280;20605;49.742;18.802;2023-05-10T23:07:44;97894.20;;;10.83;92.07
32492;BME280;20605;49.742;18.802;2023-05-10T23:10:29;97892.52;;;10.81;92.53
32492;BME280;20605;49.742;18.802;2023-05-10T23:13:12;97895.36;;;10.79;92.97
32492;BME280;20605;49.742;18.802;2023-05-10T23:15:49;97898.39;;;10.77;93.05
32492;BME280;20605;49.742;18.802;2023-05-10T23:18:37;97901.10;;;10.73;93.53
32492;BME280;20605;49.742;18.802;2023-05-10T23:21:29;97898.77;;;10.70;93.70
32492;BME280;20605;49.742;18.802;2023-05-10T23:24:12;97901.84;;;10.66;93.60
32492;BME280;20605;49.742;18.802;2023-05-10T23:27:02;97903.05;;;10.60;94.57
32492;BME280;20605;49.742;18.802;2023-05-10T23:29:38;97898.98;;;10.57;93.76
32492;BME280;20605;49.742;18.802;2023-05-10T23:32:24;97897.77;;;10.57;94.58
32492;BME280;20605;49.742;18.802;2023-05-10T23:35:41;97896.08;;;10.56;94.66
32492;BME280;20605;49.742;18.802;2023-05-10T23:38:24;97896.83;;;10.54;94.59
32492;BME280;20605;49.742;18.802;2023-05-10T23:41:13;97897.81;;;10.50;95.04
32492;BME280;20605;49.742;18.802;2023-05-10T23:43:46;97901.42;;;10.45;95.26
32492;BME280;20605;49.742;18.802;2023-05-10T23:46:31;97897.23;;;10.40;95.72
32492;BME280;20605;49.742;18.802;2023-05-10T23:49:20;97899.18;;;10.34;95.97
32492;BME280;20605;49.742;18.802;2023-05-10T23:51:51;97897.61;;;10.28;96.06
32492;BME280;20605;49.742;18.802;2023-05-10T23:54:37;97898.98;;;10.22;96.38
32492;BME280;20605;49.742;18.802;2023-05-10T23:57:28;97900.30;;;10.18;96.54
32492;BME280;20605;49.742;18.802;2023-05-10T23:59:59;97902.82;;;10.15;96.93
